sensor_id;sensor_type;location;lat;lon;timestamp;P1;durP1;ratioP1;P2;durP2;ratioP2
41059;SDS011;26811;53.160;8.202;2023-03-22T00:00:24;32.08;;;17.77;;
41059;SDS011;26811;53.160;8.202;2023-03-22T00:05:26;36.83;;;17.70;;
41059;SDS011;26811;53.160;8.202;2023-03-22T00:10:29;35.15;;;19.35;;
41059;SDS011;26811;53.160;8.202;2023-03-22T00:15:30;35.85;;;19.88;;
41059;SDS011;26811;53.160;8.202;2023-03-22T00:20:31;36.03;;;19.55;;
41059;SDS011;26811;53.160;8.202;2023-03-22T00:25:36;32.42;;;19.13;;
41059;SDS011;26811;53.160;8.202;2023-03-22T00:30:36;33.45;;;19.63;;
41059;SDS011;26811;53.160;8.202;2023-03-22T00:35:37;31.52;;;18.55;;
41059;SDS011;26811;53.160;8.202;2023-03-22T00:40:37;39.22;;;19.50;;
41059;SDS011;26811;53.160;8.202;2023-03-22T00:45:38;37.78;;;21.65;;
41059;SDS011;26811;53.160;8.202;2023-03-22T00:50:39;40.88;;;22.65;;
41059;SDS011;26811;53.160;8.202;2023-03-22T00:55:40;43.28;;;23.45;;
41059;SDS011;26811;53.160;8.202;2023-03-22T01:00:41;46.33;;;24.83;;
41059;SDS011;26811;53.160;8.202;2023-03-22T01:05:43;48.38;;;24.73;;
41059;SDS011;26811;53.160;8.202;2023-03-22T01:10:45;48.45;;;25.65;;
41059;SDS011;26811;53.160;8.202;2023-03-22T01:15:48;49.33;;;25.35;;
41059;SDS011;26811;53.160;8.202;2023-03-22T01:20:50;44.97;;;23.50;;
41059;SDS011;26811;53.160;8.202;2023-03-22T01:25:51;42.92;;;22.75;;
41059;SDS011;26811;53.160;8.202;2023-03-22T01:30:51;43.45;;;22.95;;
41059;SDS011;26811;53.160;8.202;2023-03-22T01:35:52;42.85;;;22.20;;
41059;SDS011;26811;53.160;8.202;2023-03-22T01:40:52;40.53;;;22.13;;
41059;SDS011;26811;53.160;8.202;2023-03-22T01:45:53;36.47;;;20.98;;
41059;SDS011;26811;53.160;8.202;2023-03-22T01:51:36;44.35;;;22.00;;
41059;SDS011;26811;53.160;8.202;2023-03-22T01:56:20;39.58;;;21.00;;
41059;SDS011;26811;53.160;8.202;2023-03-22T02:01:23;42.53;;;21.33;;
41059;SDS011;26811;53.160;8.202;2023-03-22T02:06:25;36.47;;;19.95;;
41059;SDS011;26811;53.160;8.202;2023-03-22T02:11:36;40.80;;;20.17;;
41059;SDS011;26811;53.160;8.202;2023-03-22T02:16:54;41.90;;;17.67;;
41059;SDS011;26811;53.160;8.202;2023-03-22T02:22:29;30.10;;;16.30;;
41059;SDS011;26811;53.160;8.202;2023-03-22T02:48:39;26.30;;;12.05;;
41059;SDS011;26811;53.160;8.202;2023-03-22T02:54:09;25.03;;;11.70;;
41059;SDS011;26811;53.160;8.202;2023-03-22T02:59:10;23.35;;;10.32;;
41059;SDS011;26811;53.160;8.202;2023-03-22T03:04:16;18.65;;;10.38;;
41059;SDS011;26811;53.160;8.202;2023-03-22T03:09:20;20.90;;;10.57;;
41059;SDS011;26811;53.160;8.202;2023-03-22T03:14:25;16.88;;;9.73;;
41059;SDS011;26811;53.160;8.202;2023-03-22T03:19:31;22.80;;;9.00;;
41059;SDS011;26811;53.160;8.202;2023-03-22T03:25:45;17.93;;;8.83;;
41059;SDS011;26811;53.160;8.202;2023-03-22T03:30:13;19.35;;;8.93;;
41059;SDS011;26811;53.160;8.202;2023-03-22T03:35:21;18.90;;;8.10;;
41059;SDS011;26811;53.160;8.202;2023-03-22T03:40:26;16.48;;;7.68;;
41059;SDS011;26811;53.160;8.202;2023-03-22T03:45:30;15.93;;;7.35;;
41059;SDS011;26811;53.160;8.202;2023-03-22T03:50:31;17.45;;;7.95;;
41059;SDS011;26811;53.160;8.202;2023-03-22T03:55:33;19.83;;;7.20;;
41059;SDS011;26811;53.160;8.202;2023-03-22T04:00:34;21.13;;;6.93;;
41059;SDS011;26811;53.160;8.202;2023-03-22T04:05:35;15.48;;;7.30;;
41059;SDS011;26811;53.160;8.202;2023-03-22T04:10:36;15.40;;;7.25;;
41059;SDS011;26811;53.160;8.202;2023-03-22T04:15:36;14.48;;;7.53;;
41059;SDS011;26811;53.160;8.202;2023-03-22T04:20:37;19.15;;;7.43;;
41059;SDS011;26811;53.160;8.202;2023-03-22T04:30:42;19.17;;;6.90;;
41059;SDS011;26811;53.160;8.202;2023-03-22T04:35:44;17.45;;;7.55;;
41059;SDS011;26811;53.160;8.202;2023-03-22T04:40:45;13.85;;;6.97;;
41059;SDS011;26811;53.160;8.202;2023-03-22T04:45:45;15.60;;;6.72;;
41059;SDS011;26811;53.160;8.202;2023-03-22T04:50:47;17.10;;;6.88;;
41059;SDS011;26811;53.160;8.202;2023-03-22T04:55:48;19.23;;;7.53;;
41059;SDS011;26811;53.160;8.202;2023-03-22T05:00:49;12.68;;;6.72;;
41059;SDS011;26811;53.160;8.202;2023-03-22T05:05:52;23.47;;;7.33;;
41059;SDS011;26811;53.160;8.202;2023-03-22T05:10:56;17.17;;;7.97;;
41059;SDS011;26811;53.160;8.202;2023-03-22T05:15:58;17.25;;;8.05;;
41059;SDS011;26811;53.160;8.202;2023-03-22T05:20:59;20.20;;;8.13;;
41059;SDS011;26811;53.160;8.202;2023-03-22T05:26:02;23.88;;;9.23;;
41059;SDS011;26811;53.160;8.202;2023-03-22T05:31:03;22.50;;;10.23;;
41059;SDS011;26811;53.160;8.202;2023-03-22T05:36:04;24.85;;;10.40;;
41059;SDS011;26811;53.160;8.202;2023-03-22T05:41:05;18.58;;;10.80;;
41059;SDS011;26811;53.160;8.202;2023-03-22T05:46:06;23.00;;;12.15;;
41059;SDS011;26811;53.160;8.202;2023-03-22T05:51:09;39.03;;;14.03;;
41059;SDS011;26811;53.160;8.202;2023-03-22T05:56:16;26.83;;;13.32;;
41059;SDS011;26811;53.160;8.202;2023-03-22T06:01:20;28.42;;;14.82;;
41059;SDS011;26811;53.160;8.202;2023-03-22T06:06:22;24.27;;;14.75;;
41059;SDS011;26811;53.160;8.202;2023-03-22T06:11:22;27.38;;;15.65;;
41059;SDS011;26811;53.160;8.202;2023-03-22T06:16:23;29.02;;;16.25;;
41059;SDS011;26811;53.160;8.202;2023-03-22T06:21:24;26.08;;;15.55;;
41059;SDS011;26811;53.160;8.202;2023-03-22T06:26:25;27.90;;;16.13;;
41059;SDS011;26811;53.160;8.202;2023-03-22T06:31:25;31.50;;;16.35;;
41059;SDS011;26811;53.160;8.202;2023-03-22T06:36:26;32.83;;;16.73;;
41059;SDS011;26811;53.160;8.202;2023-03-22T06:41:26;32.83;;;16.17;;
41059;SDS011;26811;53.160;8.202;2023-03-22T06:46:27;33.50;;;16.38;;
41059;SDS011;26811;53.160;8.202;2023-03-22T06:51:27;24.50;;;15.02;;
41059;SDS011;26811;53.160;8.202;2023-03-22T06:56:28;28.23;;;15.90;;
41059;SDS011;26811;53.160;8.202;2023-03-22T07:01:28;28.40;;;15.40;;
41059;SDS011;26811;53.160;8.202;2023-03-22T07:06:29;30.45;;;15.55;;
41059;SDS011;26811;53.160;8.202;2023-03-22T07:11:31;23.97;;;14.30;;
41059;SDS011;26811;53.160;8.202;2023-03-22T07:16:32;26.42;;;13.80;;
41059;SDS011;26811;53.160;8.202;2023-03-22T07:21:32;29.77;;;14.57;;
41059;SDS011;26811;53.160;8.202;2023-03-22T07:26:36;27.23;;;13.73;;
41059;SDS011;26811;53.160;8.202;2023-03-22T07:31:37;26.20;;;13.23;;
41059;SDS011;26811;53.160;8.202;2023-03-22T07:36:39;22.90;;;12.55;;
41059;SDS011;26811;53.160;8.202;2023-03-22T07:41:39;19.10;;;11.68;;
41059;SDS011;26811;53.160;8.202;2023-03-22T07:46:40;18.75;;;10.50;;
41059;SDS011;26811;53.160;8.202;2023-03-22T07:51:40;17.45;;;10.60;;
41059;SDS011;26811;53.160;8.202;2023-03-22T07:56:44;20.85;;;10.88;;
41059;SDS011;26811;53.160;8.202;2023-03-22T08:01:46;22.23;;;9.88;;
41059;SDS011;26811;53.160;8.202;2023-03-22T08:06:47;18.83;;;9.43;;
41059;SDS011;26811;53.160;8.202;2023-03-22T08:11:48;22.70;;;10.25;;
41059;SDS011;26811;53.160;8.202;2023-03-22T08:16:49;17.38;;;9.18;;
41059;SDS011;26811;53.160;8.202;2023-03-22T08:21:50;20.58;;;8.57;;
41059;SDS011;26811;53.160;8.202;2023-03-22T08:26:50;21.02;;;9.10;;
41059;SDS011;26811;53.160;8.202;2023-03-22T08:31:51;15.43;;;8.27;;
41059;SDS011;26811;53.160;8.202;2023-03-22T08:36:52;15.60;;;8.23;;
41059;SDS011;26811;53.160;8.202;2023-03-22T08:41:53;13.00;;;7.57;;
41059;SDS011;26811;53.160;8.202;2023-03-22T08:46:53;17.42;;;7.57;;
41059;SDS011;26811;53.160;8.202;2023-03-22T08:51:55;18.05;;;8.02;;
41059;SDS011;26811;53.160;8.202;2023-03-22T08:56:56;15.48;;;7.30;;
41059;SDS011;26811;53.160;8.202;2023-03-22T09:01:58;19.20;;;7.88;;
41059;SDS011;26811;53.160;8.202;2023-03-22T09:06:58;18.25;;;7.60;;
41059;SDS011;26811;53.160;8.202;2023-03-22T09:11:59;11.38;;;6.57;;
41059;SDS011;26811;53.160;8.202;2023-03-22T09:16:59;16.70;;;6.85;;
41059;SDS011;26811;53.160;8.202;2023-03-22T09:22:00;17.90;;;6.45;;
41059;SDS011;26811;53.160;8.202;2023-03-22T09:27:01;15.23;;;6.00;;
41059;SDS011;26811;53.160;8.202;2023-03-22T09:32:02;12.10;;;5.35;;
41059;SDS011;26811;53.160;8.202;2023-03-22T09:37:02;11.23;;;5.10;;
41059;SDS011;26811;53.160;8.202;2023-03-22T09:42:04;16.00;;;4.63;;
41059;SDS011;26811;53.160;8.202;2023-03-22T09:47:27;15.80;;;4.90;;
41059;SDS011;26811;53.160;8.202;2023-03-22T09:52:33;10.05;;;3.92;;
41059;SDS011;26811;53.160;8.202;2023-03-22T09:57:36;14.93;;;3.83;;
41059;SDS011;26811;53.160;8.202;2023-03-22T10:02:40;8.70;;;3.75;;
41059;SDS011;26811;53.160;8.202;2023-03-22T10:23:46;7.50;;;3.42;;
41059;SDS011;26811;53.160;8.202;2023-03-22T10:28:56;6.82;;;3.17;;
41059;SDS011;26811;53.160;8.202;2023-03-22T10:34:06;9.50;;;3.13;;
41059;SDS011;26811;53.160;8.202;2023-03-22T10:39:29;10.30;;;3.10;;
41059;SDS011;26811;53.160;8.202;2023-03-22T10:49:56;7.45;;;3.10;;
41059;SDS011;26811;53.160;8.202;2023-03-22T10:54:59;12.27;;;3.92;;
41059;SDS011;26811;53.160;8.202;2023-03-22T11:00:00;10.30;;;3.92;;
41059;SDS011;26811;53.160;8.202;2023-03-22T11:05:16;15.90;;;3.63;;
41059;SDS011;26811;53.160;8.202;2023-03-22T11:10:23;12.32;;;3.25;;
41059;SDS011;26811;53.160;8.202;2023-03-22T11:15:30;9.65;;;3.45;;
41059;SDS011;26811;53.160;8.202;2023-03-22T11:20:32;12.25;;;2.97;;
41059;SDS011;26811;53.160;8.202;2023-03-22T11:25:35;12.60;;;3.90;;
41059;SDS011;26811;53.160;8.202;2023-03-22T11:30:56;9.30;;;3.15;;
41059;SDS011;26811;53.160;8.202;2023-03-22T11:36:00;9.23;;;3.00;;
41059;SDS011;26811;53.160;8.202;2023-03-22T11:41:45;9.50;;;3.92;;
41059;SDS011;26811;53.160;8.202;2023-03-22T11:46:28;10.43;;;3.85;;
41059;SDS011;26811;53.160;8.202;2023-03-22T11:51:31;10.68;;;4.00;;
41059;SDS011;26811;53.160;8.202;2023-03-22T11:56:34;9.98;;;4.10;;
41059;SDS011;26811;53.160;8.202;2023-03-22T12:01:45;14.05;;;4.28;;
41059;SDS011;26811;53.160;8.202;2023-03-22T12:06:47;15.65;;;4.75;;
41059;SDS011;26811;53.160;8.202;2023-03-22T12:11:53;8.35;;;4.40;;
41059;SDS011;26811;53.160;8.202;2023-03-22T12:22:18;14.30;;;4.20;;
41059;SDS011;26811;53.160;8.202;2023-03-22T12:27:25;9.80;;;4.53;;
41059;SDS011;26811;53.160;8.202;2023-03-22T12:32:39;8.90;;;4.10;;
41059;SDS011;26811;53.160;8.202;2023-03-22T12:37:45;14.05;;;4.45;;
41059;SDS011;26811;53.160;8.202;2023-03-22T12:42:53;10.88;;;4.10;;
41059;SDS011;26811;53.160;8.202;2023-03-22T12:48:28;10.43;;;4.13;;
41059;SDS011;26811;53.160;8.202;2023-03-22T12:53:43;11.00;;;3.97;;
41059;SDS011;26811;53.160;8.202;2023-03-22T12:58:47;11.25;;;4.47;;
41059;SDS011;26811;53.160;8.202;2023-03-22T13:03:51;11.30;;;4.20;;
41059;SDS011;26811;53.160;8.202;2023-03-22T13:09:13;10.57;;;3.92;;
41059;SDS011;26811;53.160;8.202;2023-03-22T13:30:21;14.57;;;4.63;;
41059;SDS011;26811;53.160;8.202;2023-03-22T13:35:46;8.68;;;3.97;;
41059;SDS011;26811;53.160;8.202;2023-03-22T13:41:15;12.73;;;4.25;;
41059;SDS011;26811;53.160;8.202;2023-03-22T13:51:26;9.57;;;4.60;;
41059;SDS011;26811;53.160;8.202;2023-03-22T14:06:56;8.10;;;4.55;;
41059;SDS011;26811;53.160;8.202;2023-03-22T14:12:00;12.73;;;5.22;;
41059;SDS011;26811;53.160;8.202;2023-03-22T14:22:52;14.82;;;5.45;;
41059;SDS011;26811;53.160;8.202;2023-03-22T14:27:57;14.63;;;5.25;;
41059;SDS011;26811;53.160;8.202;2023-03-22T14:33:05;14.55;;;4.90;;
41059;SDS011;26811;53.160;8.202;2023-03-22T14:38:18;8.65;;;4.47;;
41059;SDS011;26811;53.160;8.202;2023-03-22T14:43:22;11.13;;;4.30;;
41059;SDS011;26811;53.160;8.202;2023-03-22T14:48:23;10.83;;;4.40;;
41059;SDS011;26811;53.160;8.202;2023-03-22T14:53:27;9.40;;;4.60;;
41059;SDS011;26811;53.160;8.202;2023-03-22T14:58:32;10.00;;;4.43;;
41059;SDS011;26811;53.160;8.202;2023-03-22T15:03:36;13.65;;;4.55;;
41059;SDS011;26811;53.160;8.202;2023-03-22T15:08:36;12.02;;;4.88;;
41059;SDS011;26811;53.160;8.202;2023-03-22T15:13:37;10.23;;;4.38;;
41059;SDS011;26811;53.160;8.202;2023-03-22T15:18:39;8.90;;;4.38;;
41059;SDS011;26811;53.160;8.202;2023-03-22T15:23:50;9.73;;;4.90;;
41059;SDS011;26811;53.160;8.202;2023-03-22T15:28:54;7.88;;;3.97;;
41059;SDS011;26811;53.160;8.202;2023-03-22T15:34:00;10.25;;;4.53;;
41059;SDS011;26811;53.160;8.202;2023-03-22T15:39:04;8.38;;;4.28;;
41059;SDS011;26811;53.160;8.202;2023-03-22T15:49:23;8.23;;;4.10;;
41059;SDS011;26811;53.160;8.202;2023-03-22T15:54:32;11.73;;;4.03;;
41059;SDS011;26811;53.160;8.202;2023-03-22T15:59:45;7.97;;;3.92;;
41059;SDS011;26811;53.160;8.202;2023-03-22T16:04:51;8.82;;;4.18;;
41059;SDS011;26811;53.160;8.202;2023-03-22T16:09:54;8.98;;;3.42;;
41059;SDS011;26811;53.160;8.202;2023-03-22T16:14:55;13.18;;;3.85;;
41059;SDS011;26811;53.160;8.202;2023-03-22T16:19:56;9.18;;;3.45;;
41059;SDS011;26811;53.160;8.202;2023-03-22T16:24:57;5.45;;;3.60;;
41059;SDS011;26811;53.160;8.202;2023-03-22T16:29:59;6.90;;;3.90;;
41059;SDS011;26811;53.160;8.202;2023-03-22T16:34:59;9.02;;;3.63;;
41059;SDS011;26811;53.160;8.202;2023-03-22T16:40:00;7.93;;;3.67;;
41059;SDS011;26811;53.160;8.202;2023-03-22T16:45:00;8.75;;;3.45;;
41059;SDS011;26811;53.160;8.202;2023-03-22T16:50:01;8.70;;;3.35;;
41059;SDS011;26811;53.160;8.202;2023-03-22T16:55:02;6.35;;;3.58;;
41059;SDS011;26811;53.160;8.202;2023-03-22T17:00:03;6.30;;;3.40;;
41059;SDS011;26811;53.160;8.202;2023-03-22T17:05:05;8.02;;;3.90;;
41059;SDS011;26811;53.160;8.202;2023-03-22T17:10:07;6.53;;;3.40;;
41059;SDS011;26811;53.160;8.202;2023-03-22T17:20:28;9.18;;;4.35;;
41059;SDS011;26811;53.160;8.202;2023-03-22T17:25:30;6.45;;;3.13;;
41059;SDS011;26811;53.160;8.202;2023-03-22T17:30:33;8.07;;;3.60;;
41059;SDS011;26811;53.160;8.202;2023-03-22T17:35:34;8.15;;;3.58;;
41059;SDS011;26811;53.160;8.202;2023-03-22T17:40:35;6.28;;;3.78;;
41059;SDS011;26811;53.160;8.202;2023-03-22T17:45:36;13.68;;;3.70;;
41059;SDS011;26811;53.160;8.202;2023-03-22T17:50:37;6.97;;;3.50;;
41059;SDS011;26811;53.160;8.202;2023-03-22T17:55:37;3.47;;;3.17;;
41059;SDS011;26811;53.160;8.202;2023-03-22T18:00:38;9.00;;;5.00;;
41059;SDS011;26811;53.160;8.202;2023-03-22T18:05:39;17.17;;;6.45;;
41059;SDS011;26811;53.160;8.202;2023-03-22T18:10:39;14.18;;;6.07;;
41059;SDS011;26811;53.160;8.202;2023-03-22T18:15:40;10.70;;;3.65;;
41059;SDS011;26811;53.160;8.202;2023-03-22T18:20:40;10.25;;;5.00;;
41059;SDS011;26811;53.160;8.202;2023-03-22T18:25:41;10.95;;;4.25;;
41059;SDS011;26811;53.160;8.202;2023-03-22T18:30:41;10.55;;;4.97;;
41059;SDS011;26811;53.160;8.202;2023-03-22T18:35:42;10.68;;;4.57;;
41059;SDS011;26811;53.160;8.202;2023-03-22T18:40:43;7.15;;;4.13;;
41059;SDS011;26811;53.160;8.202;2023-03-22T18:45:44;13.05;;;4.28;;
41059;SDS011;26811;53.160;8.202;2023-03-22T18:50:44;11.68;;;4.38;;
41059;SDS011;26811;53.160;8.202;2023-03-22T18:55:45;7.18;;;4.18;;
41059;SDS011;26811;53.160;8.202;2023-03-22T19:00:45;14.65;;;4.72;;
41059;SDS011;26811;53.160;8.202;2023-03-22T19:05:46;8.50;;;4.53;;
41059;SDS011;26811;53.160;8.202;2023-03-22T19:10:47;13.73;;;5.53;;
41059;SDS011;26811;53.160;8.202;2023-03-22T19:15:48;9.65;;;5.88;;
41059;SDS011;26811;53.160;8.202;2023-03-22T19:20:48;11.10;;;5.63;;
41059;SDS011;26811;53.160;8.202;2023-03-22T19:25:49;8.90;;;5.65;;
41059;SDS011;26811;53.160;8.202;2023-03-22T19:30:51;9.52;;;5.68;;
41059;SDS011;26811;53.160;8.202;2023-03-22T19:35:52;12.93;;;6.80;;
41059;SDS011;26811;53.160;8.202;2023-03-22T19:41:00;20.73;;;6.55;;
41059;SDS011;26811;53.160;8.202;2023-03-22T19:46:06;9.13;;;5.68;;
41059;SDS011;26811;53.160;8.202;2023-03-22T19:51:07;10.63;;;6.43;;
41059;SDS011;26811;53.160;8.202;2023-03-22T19:56:09;14.45;;;7.55;;
41059;SDS011;26811;53.160;8.202;2023-03-22T20:01:10;11.27;;;7.07;;
41059;SDS011;26811;53.160;8.202;2023-03-22T20:06:10;11.60;;;7.28;;
41059;SDS011;26811;53.160;8.202;2023-03-22T20:11:11;14.68;;;8.50;;
41059;SDS011;26811;53.160;8.202;2023-03-22T20:16:12;17.05;;;8.52;;
41059;SDS011;26811;53.160;8.202;2023-03-22T20:21:12;19.48;;;9.68;;
41059;SDS011;26811;53.160;8.202;2023-03-22T20:26:13;15.02;;;10.35;;
41059;SDS011;26811;53.160;8.202;2023-03-22T20:31:14;19.42;;;12.10;;
41059;SDS011;26811;53.160;8.202;2023-03-22T20:36:15;23.33;;;13.73;;
41059;SDS011;26811;53.160;8.202;2023-03-22T20:41:16;21.33;;;13.15;;
41059;SDS011;26811;53.160;8.202;2023-03-22T20:46:17;19.73;;;12.57;;
41059;SDS011;26811;53.160;8.202;2023-03-22T20:51:17;23.52;;;12.98;;
41059;SDS011;26811;53.160;8.202;2023-03-22T20:56:18;24.27;;;13.10;;
41059;SDS011;26811;53.160;8.202;2023-03-22T21:01:19;19.27;;;12.32;;
41059;SDS011;26811;53.160;8.202;2023-03-22T21:06:20;20.73;;;12.45;;
41059;SDS011;26811;53.160;8.202;2023-03-22T21:11:20;18.88;;;12.70;;
41059;SDS011;26811;53.160;8.202;2023-03-22T21:16:21;22.00;;;11.05;;
41059;SDS011;26811;53.160;8.202;2023-03-22T21:21:21;17.65;;;10.98;;
41059;SDS011;26811;53.160;8.202;2023-03-22T21:26:22;21.10;;;12.88;;
41059;SDS011;26811;53.160;8.202;2023-03-22T21:31:22;21.98;;;12.95;;
41059;SDS011;26811;53.160;8.202;2023-03-22T21:36:23;20.98;;;13.00;;
41059;SDS011;26811;53.160;8.202;2023-03-22T21:41:24;23.63;;;13.48;;
41059;SDS011;26811;53.160;8.202;2023-03-22T21:46:26;25.07;;;14.37;;
41059;SDS011;26811;53.160;8.202;2023-03-22T21:51:29;25.60;;;15.07;;
41059;SDS011;26811;53.160;8.202;2023-03-22T21:56:30;25.98;;;15.80;;
41059;SDS011;26811;53.160;8.202;2023-03-22T22:01:32;23.83;;;14.57;;
41059;SDS011;26811;53.160;8.202;2023-03-22T22:06:33;27.80;;;14.93;;
41059;SDS011;26811;53.160;8.202;2023-03-22T22:11:33;24.15;;;14.75;;
41059;SDS011;26811;53.160;8.202;2023-03-22T22:16:35;27.80;;;14.05;;
41059;SDS011;26811;53.160;8.202;2023-03-22T22:21:37;42.60;;;22.30;;
41059;SDS011;26811;53.160;8.202;2023-03-22T22:26:37;51.88;;;24.70;;
41059;SDS011;26811;53.160;8.202;2023-03-22T22:31:38;28.88;;;17.52;;
41059;SDS011;26811;53.160;8.202;2023-03-22T22:36:39;22.27;;;14.20;;
41059;SDS011;26811;53.160;8.202;2023-03-22T22:41:40;23.10;;;14.18;;
41059;SDS011;26811;53.160;8.202;2023-03-22T22:46:42;26.20;;;14.77;;
41059;SDS011;26811;53.160;8.202;2023-03-22T22:51:43;30.17;;;15.98;;
41059;SDS011;26811;53.160;8.202;2023-03-22T22:56:43;22.38;;;13.35;;
41059;SDS011;26811;53.160;8.202;2023-03-22T23:01:44;21.05;;;13.65;;
41059;SDS011;26811;53.160;8.202;2023-03-22T23:06:44;24.13;;;13.07;;
41059;SDS011;26811;53.160;8.202;2023-03-22T23:11:46;22.58;;;13.68;;
41059;SDS011;26811;53.160;8.202;2023-03-22T23:16:46;19.50;;;12.90;;
41059;SDS011;26811;53.160;8.202;2023-03-22T23:21:47;16.98;;;12.23;;
41059;SDS011;26811;53.160;8.202;2023-03-22T23:26:50;17.70;;;12.52;;
41059;SDS011;26811;53.160;8.202;2023-03-22T23:31:55;20.48;;;13.35;;
41059;SDS011;26811;53.160;8.202;2023-03-22T23:36:56;19.65;;;14.52;;
41059;SDS011;26811;53.160;8.202;2023-03-22T23:41:57;20.65;;;13.88;;
41059;SDS011;26811;53.160;8.202;2023-03-22T23:46:58;26.60;;;15.73;;
41059;SDS011;26811;53.160;8.202;2023-03-22T23:51:58;24.15;;;15.40;;
41059;SDS011;26811;53.160;8.202;2023-03-22T23:56:59;20.92;;;14.38;;
